createdAt,value
2022-11-30T00:01:14.222Z,57.66
2022-11-30T00:03:42.393Z,57.70
2022-11-30T00:06:13.029Z,57.47
2022-11-30T00:08:41.267Z,58.04
2022-11-30T00:11:10.586Z,58.05
2022-11-30T00:13:38.443Z,57.63
2022-11-30T00:16:07.071Z,57.31
2022-11-30T00:18:35.145Z,57.94
2022-11-30T00:21:03.717Z,57.49
2022-11-30T00:23:34.887Z,57.24
2022-11-30T00:26:03.407Z,57.40
2022-11-30T00:28:33.041Z,57.32
2022-11-30T00:31:01.375Z,56.68
2022-11-30T00:33:29.556Z,56.72
2022-11-30T00:35:58.657Z,56.85
2022-11-30T00:38:26.771Z,56.60
2022-11-30T00:40:56.654Z,56.93
2022-11-30T00:43:24.637Z,57.40
2022-11-30T00:45:52.591Z,57.24
2022-11-30T00:48:20.456Z,57.48
2022-11-30T00:50:49.209Z,57.61
2022-11-30T00:53:17.168Z,57.16
2022-11-30T00:55:45.355Z,57.45
2022-11-30T00:58:15.284Z,56.90
2022-11-30T01:00:43.314Z,57.15
2022-11-30T01:03:11.716Z,56.56
2022-11-30T01:05:41.239Z,56.23
2022-11-30T01:08:10.773Z,57.08
2022-11-30T01:10:40.760Z,56.82
2022-11-30T01:13:08.929Z,57.09
2022-11-30T01:15:39.502Z,57.37
2022-11-30T01:18:07.933Z,57.28
2022-11-30T01:20:36.007Z,57.28
2022-11-30T01:23:04.043Z,57.04
2022-11-30T01:25:31.812Z,56.46
2022-11-30T01:27:59.639Z,56.73
2022-11-30T01:30:27.661Z,56.78
2022-11-30T01:32:57.074Z,55.83
2022-11-30T01:35:24.921Z,55.70
2022-11-30T01:37:52.703Z,55.93
2022-11-30T01:40:20.779Z,55.70
2022-11-30T01:42:48.567Z,55.75
2022-11-30T01:45:16.481Z,56.16
2022-11-30T01:47:47.758Z,56.88
2022-11-30T01:50:21.918Z,56.00
2022-11-30T01:52:52.241Z,55.73
2022-11-30T01:55:22.743Z,55.83
2022-11-30T01:57:53.675Z,55.51
2022-11-30T02:00:22.099Z,54.91
2022-11-30T02:02:56.278Z,54.77
2022-11-30T02:05:26.286Z,54.78
2022-11-30T02:07:54.561Z,54.73
2022-11-30T02:10:25.564Z,55.10
2022-11-30T02:13:14.278Z,55.07
2022-11-30T02:15:49.643Z,54.69
2022-11-30T02:18:22.252Z,54.47
2022-11-30T02:21:07.521Z,53.88
2022-11-30T02:24:01.788Z,54.85
2022-11-30T02:26:56.180Z,54.11
2022-11-30T02:29:26.978Z,54.53
2022-11-30T02:32:00.118Z,54.68
2022-11-30T02:34:29.743Z,54.21
2022-11-30T02:36:58.429Z,53.97
2022-11-30T02:39:26.278Z,54.53
2022-11-30T02:41:54.196Z,53.79
2022-11-30T02:44:25.020Z,55.04
2022-11-30T02:47:00.954Z,54.33
2022-11-30T02:49:34.969Z,54.21
2022-11-30T02:52:03.754Z,54.86
2022-11-30T02:54:31.522Z,54.50
2022-11-30T02:56:59.920Z,54.53
2022-11-30T02:59:29.309Z,55.04
2022-11-30T03:01:57.614Z,54.28
2022-11-30T03:04:25.489Z,54.59
2022-11-30T03:06:53.422Z,53.79
2022-11-30T03:09:21.331Z,52.97
2022-11-30T03:11:49.236Z,53.56
2022-11-30T03:14:17.008Z,54.07
2022-11-30T03:16:46.197Z,53.95
2022-11-30T03:19:14.262Z,54.26
2022-11-30T03:21:42.123Z,54.66
2022-11-30T03:24:09.993Z,53.40
2022-11-30T03:26:37.803Z,53.62
2022-11-30T03:29:05.771Z,54.84
2022-11-30T03:31:33.682Z,54.60
2022-11-30T03:34:02.993Z,54.85
2022-11-30T03:36:30.884Z,55.61
2022-11-30T03:38:58.962Z,55.22
2022-11-30T03:41:26.832Z,54.70
2022-11-30T03:43:54.730Z,55.46
2022-11-30T03:46:22.774Z,54.50
2022-11-30T03:48:50.698Z,54.74
2022-11-30T03:51:19.894Z,54.41
2022-11-30T03:53:47.848Z,55.20
2022-11-30T03:56:16.734Z,54.31
2022-11-30T03:58:44.639Z,54.22
2022-11-30T04:01:14.124Z,55.27
2022-11-30T04:03:42.390Z,55.22
2022-11-30T04:06:11.978Z,56.18
2022-11-30T04:08:41.815Z,56.78
2022-11-30T04:11:10.139Z,55.30
2022-11-30T04:13:39.447Z,55.66
2022-11-30T04:16:08.104Z,55.70
2022-11-30T04:18:37.224Z,55.39
2022-11-30T04:21:05.627Z,54.57
2022-11-30T04:23:35.733Z,55.52
2022-11-30T04:26:05.738Z,54.44
2022-11-30T04:28:33.826Z,54.54
2022-11-30T04:31:02.635Z,54.16
2022-11-30T04:33:30.996Z,54.63
2022-11-30T04:36:00.444Z,54.74
2022-11-30T04:38:29.659Z,54.81
2022-11-30T04:40:57.700Z,54.48
2022-11-30T04:43:27.233Z,54.69
2022-11-30T04:45:55.115Z,54.49
2022-11-30T04:48:22.943Z,55.06
2022-11-30T04:50:50.788Z,55.47
2022-11-30T04:53:18.587Z,55.34
2022-11-30T04:55:46.571Z,55.53
2022-11-30T04:58:14.594Z,56.03
2022-11-30T05:00:43.784Z,54.92
2022-11-30T05:03:11.635Z,56.54
2022-11-30T05:05:39.458Z,55.97
2022-11-30T05:08:07.454Z,56.79
2022-11-30T05:10:35.279Z,56.29
2022-11-30T05:13:03.071Z,56.04
2022-11-30T05:15:31.066Z,55.63
2022-11-30T05:18:01.498Z,56.31
2022-11-30T05:20:30.001Z,55.42
2022-11-30T05:22:58.882Z,56.01
2022-11-30T05:25:26.964Z,55.74
2022-11-30T05:27:54.795Z,56.48
2022-11-30T05:30:22.939Z,55.30
2022-11-30T05:32:51.147Z,55.29
2022-11-30T05:35:20.508Z,55.08
2022-11-30T05:37:48.762Z,55.17
2022-11-30T05:40:16.648Z,55.54
2022-11-30T05:42:44.631Z,55.87
2022-11-30T05:45:12.689Z,55.44
2022-11-30T05:47:40.961Z,54.54
2022-11-30T05:50:09.767Z,54.79
2022-11-30T05:52:39.082Z,55.22
2022-11-30T05:55:07.503Z,54.91
2022-11-30T05:57:37.094Z,55.09
2022-11-30T06:00:05.968Z,54.78
2022-11-30T06:02:39.599Z,55.39
2022-11-30T06:05:08.511Z,55.07
2022-11-30T06:07:36.362Z,54.86
2022-11-30T06:10:06.207Z,55.45
2022-11-30T06:12:34.113Z,55.35
2022-11-30T06:15:02.029Z,54.31
2022-11-30T06:17:29.905Z,54.28
2022-11-30T06:19:58.595Z,54.58
2022-11-30T06:22:26.552Z,54.69
2022-11-30T06:24:55.266Z,54.37
2022-11-30T06:27:24.649Z,55.28
2022-11-30T06:29:52.968Z,54.18
2022-11-30T06:32:20.794Z,54.57
2022-11-30T06:34:48.885Z,54.45
2022-11-30T06:37:19.889Z,54.47
2022-11-30T06:40:06.081Z,55.01
2022-11-30T06:42:37.136Z,55.03
2022-11-30T06:45:06.385Z,55.04
2022-11-30T06:47:34.404Z,54.87
2022-11-30T06:50:02.245Z,55.32
2022-11-30T06:52:31.498Z,55.37
2022-11-30T06:54:59.326Z,54.83
2022-11-30T06:57:28.210Z,54.33
2022-11-30T06:59:58.000Z,54.51
2022-11-30T07:02:26.015Z,54.73
2022-11-30T07:04:53.941Z,54.98
2022-11-30T07:07:22.313Z,54.75
2022-11-30T07:09:51.013Z,54.87
2022-11-30T07:12:19.062Z,56.14
2022-11-30T07:14:47.328Z,54.83
2022-11-30T07:17:16.809Z,54.08
2022-11-30T07:19:44.706Z,53.48
2022-11-30T07:22:12.602Z,54.22
2022-11-30T07:24:58.053Z,53.82
2022-11-30T07:27:26.327Z,53.54
2022-11-30T07:29:54.127Z,53.38
2022-11-30T07:32:23.813Z,54.45
2022-11-30T07:34:51.705Z,53.26
2022-11-30T07:37:19.561Z,52.74
2022-11-30T07:39:47.444Z,52.64
2022-11-30T07:42:17.011Z,52.86
2022-11-30T07:44:45.310Z,52.71
2022-11-30T07:47:13.389Z,52.56
2022-11-30T07:49:42.742Z,52.14
2022-11-30T07:52:10.833Z,51.68
2022-11-30T07:54:38.657Z,51.66
2022-11-30T07:57:06.552Z,51.94
2022-11-30T07:59:34.516Z,52.30
2022-11-30T08:02:02.521Z,51.52
2022-11-30T08:04:30.548Z,51.50
2022-11-30T08:07:00.267Z,52.18
2022-11-30T08:09:28.133Z,51.24
2022-11-30T08:11:55.998Z,51.44
2022-11-30T08:14:23.855Z,51.10
2022-11-30T08:16:51.800Z,50.71
2022-11-30T08:19:19.833Z,51.21
2022-11-30T08:21:47.823Z,49.75
2022-11-30T08:24:17.158Z,50.54
2022-11-30T08:26:45.351Z,50.28
2022-11-30T08:29:13.162Z,49.96
2022-11-30T08:31:40.982Z,49.71
2022-11-30T08:34:11.855Z,50.97
2022-11-30T08:36:40.323Z,50.18
2022-11-30T08:39:09.956Z,51.01
2022-11-30T08:41:39.710Z,50.29
2022-11-30T08:44:07.796Z,49.77
2022-11-30T08:46:50.793Z,50.13
2022-11-30T08:49:22.908Z,49.26
2022-11-30T08:54:42.380Z,48.99
2022-11-30T08:57:11.673Z,49.28
2022-11-30T08:59:39.476Z,49.01
2022-11-30T09:02:07.585Z,48.80
2022-11-30T09:04:35.430Z,48.98
2022-11-30T09:07:03.674Z,48.25
2022-11-30T09:09:31.477Z,47.59
2022-11-30T09:11:59.323Z,47.37
2022-11-30T09:14:28.876Z,47.22
2022-11-30T09:16:56.676Z,48.12
2022-11-30T09:19:24.505Z,47.33
2022-11-30T09:21:52.813Z,46.99
2022-11-30T09:24:20.889Z,46.87
2022-11-30T09:26:48.914Z,46.71
2022-11-30T09:29:16.735Z,47.16
2022-11-30T09:31:45.980Z,46.35
2022-11-30T09:34:14.105Z,46.78
2022-11-30T09:36:41.964Z,45.97
2022-11-30T09:39:12.852Z,45.53
2022-11-30T09:42:19.558Z,45.62
2022-11-30T09:44:58.247Z,45.84
2022-11-30T09:47:49.381Z,44.64
2022-11-30T09:50:20.180Z,44.43
2022-11-30T09:52:50.557Z,44.61
2022-11-30T09:55:25.109Z,43.91
2022-11-30T09:57:54.505Z,43.72
2022-11-30T10:00:23.708Z,44.54
2022-11-30T10:02:54.555Z,43.90
2022-11-30T10:05:24.812Z,43.68
2022-11-30T10:08:18.210Z,43.39
2022-11-30T10:10:50.470Z,43.25
2022-11-30T10:13:27.836Z,42.92
2022-11-30T10:16:04.185Z,42.39
2022-11-30T10:18:41.583Z,42.66
2022-11-30T10:21:18.375Z,41.70
2022-11-30T10:23:55.051Z,41.67
2022-11-30T10:26:27.362Z,41.48
2022-11-30T10:28:56.306Z,41.84
2022-11-30T10:31:30.535Z,41.31
2022-11-30T10:34:04.916Z,41.08
2022-11-30T10:36:37.839Z,40.91
2022-11-30T10:39:13.071Z,40.96
2022-11-30T10:41:45.377Z,40.78
2022-11-30T10:44:16.376Z,41.40
2022-11-30T10:46:50.248Z,41.89
2022-11-30T10:49:20.668Z,41.88
2022-11-30T10:51:52.247Z,41.51
2022-11-30T10:54:22.326Z,41.65
2022-11-30T10:56:50.184Z,41.38
2022-11-30T10:59:20.853Z,41.24
2022-11-30T11:01:49.060Z,40.83
2022-11-30T11:04:22.553Z,41.30
2022-11-30T11:06:53.612Z,40.78
2022-11-30T11:09:33.324Z,40.80
2022-11-30T11:12:02.527Z,40.05
2022-11-30T11:14:34.999Z,40.00
2022-11-30T11:17:08.093Z,39.77
2022-11-30T11:19:40.861Z,40.20
2022-11-30T11:22:16.471Z,40.46
2022-11-30T11:24:44.811Z,40.38
2022-11-30T11:27:22.334Z,40.51
2022-11-30T11:29:59.429Z,40.16
2022-11-30T11:32:27.443Z,39.98
2022-11-30T11:34:56.876Z,40.11
2022-11-30T11:37:28.795Z,40.24
2022-11-30T11:40:06.207Z,39.90
2022-11-30T11:42:38.357Z,40.15
2022-11-30T11:45:15.439Z,40.25
2022-11-30T11:47:45.764Z,40.04
2022-11-30T11:51:04.359Z,39.41
2022-11-30T11:53:24.863Z,39.63
2022-11-30T11:55:59.886Z,39.29
2022-11-30T11:58:38.463Z,39.22
2022-11-30T12:01:38.811Z,39.41
2022-11-30T12:04:07.750Z,39.77
2022-11-30T12:06:37.715Z,39.57
2022-11-30T12:09:08.773Z,39.49
2022-11-30T12:11:42.072Z,38.98
2022-11-30T12:14:12.629Z,39.16
2022-11-30T12:17:01.559Z,39.04
2022-11-30T12:19:35.777Z,38.38
2022-11-30T12:22:14.536Z,38.23
2022-11-30T12:24:53.274Z,37.93
2022-11-30T12:27:26.601Z,38.08
2022-11-30T12:30:02.736Z,38.33
2022-11-30T12:32:36.946Z,38.52
2022-11-30T12:35:15.875Z,38.73
2022-11-30T12:37:52.448Z,38.85
2022-11-30T12:40:29.321Z,39.19
2022-11-30T12:43:03.869Z,38.46
2022-11-30T12:45:36.357Z,38.43
2022-11-30T12:48:12.630Z,38.30
2022-11-30T12:50:49.747Z,37.72
2022-11-30T12:53:22.950Z,37.20
2022-11-30T12:55:56.103Z,36.83
2022-11-30T12:58:28.921Z,36.95
2022-11-30T13:01:05.490Z,36.78
2022-11-30T13:03:42.613Z,34.79
2022-11-30T13:06:14.117Z,33.46
2022-11-30T13:08:50.049Z,31.95
2022-11-30T13:11:21.324Z,30.44
2022-11-30T13:13:51.551Z,29.56
2022-11-30T13:16:20.121Z,30.25
2022-11-30T13:18:48.644Z,30.30
2022-11-30T13:21:22.921Z,30.94
2022-11-30T13:23:58.151Z,30.65
2022-11-30T13:26:30.380Z,30.63
2022-11-30T13:29:08.783Z,30.67
2022-11-30T13:31:42.100Z,31.58
2022-11-30T13:34:24.971Z,32.79
2022-11-30T13:36:53.347Z,32.74
2022-11-30T13:39:24.415Z,31.47
2022-11-30T13:42:08.494Z,31.53
2022-11-30T13:44:38.000Z,33.30
2022-11-30T13:47:08.687Z,34.66
2022-11-30T13:49:37.279Z,35.46
2022-11-30T13:52:23.227Z,36.12
2022-11-30T13:54:55.544Z,37.05
2022-11-30T13:58:06.599Z,38.30
2022-11-30T14:00:49.470Z,38.86
2022-11-30T14:03:24.345Z,38.80
2022-11-30T14:05:52.955Z,39.38
2022-11-30T14:08:38.892Z,39.49
2022-11-30T14:11:42.385Z,40.53
2022-11-30T14:14:48.857Z,40.90
2022-11-30T14:17:22.045Z,40.84
2022-11-30T14:19:52.285Z,42.20
2022-11-30T14:22:20.904Z,44.14
2022-11-30T14:24:49.979Z,45.09
2022-11-30T14:27:22.365Z,45.27
2022-11-30T14:29:53.313Z,44.92
2022-11-30T14:32:27.197Z,46.14
2022-11-30T14:35:02.015Z,46.56
2022-11-30T14:37:33.728Z,46.66
2022-11-30T14:40:05.005Z,45.74
2022-11-30T14:42:35.286Z,45.80
2022-11-30T14:45:03.316Z,46.40
2022-11-30T14:47:32.492Z,46.58
2022-11-30T14:50:02.964Z,46.82
2022-11-30T14:52:50.688Z,47.77
2022-11-30T14:55:24.884Z,47.80
2022-11-30T14:58:05.497Z,48.28
2022-11-30T15:00:38.456Z,48.45
2022-11-30T15:03:06.666Z,49.40
2022-11-30T15:05:34.707Z,50.19
2022-11-30T15:08:03.196Z,50.22
2022-11-30T15:10:32.555Z,49.03
2022-11-30T15:13:02.607Z,49.92
2022-11-30T15:15:31.373Z,49.13
2022-11-30T15:18:00.814Z,49.88
2022-11-30T15:20:31.431Z,49.81
2022-11-30T15:23:00.104Z,51.33
2022-11-30T15:25:34.183Z,51.00
2022-11-30T15:28:04.747Z,52.35
2022-11-30T15:30:33.358Z,51.68
2022-11-30T15:33:01.279Z,51.15
2022-11-30T15:35:49.905Z,49.51
2022-11-30T15:38:20.769Z,51.91
2022-11-30T15:40:55.205Z,50.97
2022-11-30T15:43:26.269Z,51.39
2022-11-30T15:45:55.885Z,49.81
2022-11-30T15:48:29.988Z,51.38
2022-11-30T15:50:58.098Z,51.63
2022-11-30T15:53:34.297Z,51.67
2022-11-30T15:56:07.272Z,50.32
2022-11-30T15:58:45.659Z,50.27
2022-11-30T16:01:16.936Z,51.46
2022-11-30T16:04:07.913Z,53.44
2022-11-30T16:06:38.519Z,53.36
2022-11-30T16:09:18.764Z,50.18
2022-11-30T16:11:48.143Z,49.18
2022-11-30T16:14:17.959Z,49.44
2022-11-30T16:16:46.391Z,49.38
2022-11-30T16:19:14.341Z,50.56
2022-11-30T16:21:42.489Z,50.36
2022-11-30T16:24:12.938Z,50.07
2022-11-30T16:26:50.962Z,50.69
2022-11-30T16:29:21.505Z,50.46
2022-11-30T16:31:49.380Z,50.33
2022-11-30T16:34:17.429Z,50.00
2022-11-30T16:36:45.241Z,50.31
2022-11-30T16:39:13.605Z,49.80
2022-11-30T16:41:41.522Z,50.16
2022-11-30T16:44:13.019Z,49.78
2022-11-30T16:46:42.235Z,50.28
2022-11-30T16:49:10.164Z,51.04
2022-11-30T16:51:38.462Z,50.52
2022-11-30T16:54:06.352Z,50.08
2022-11-30T16:56:34.222Z,50.20
2022-11-30T16:59:02.015Z,49.54
2022-11-30T17:01:35.712Z,49.64
2022-11-30T17:04:10.909Z,50.32
2022-11-30T17:06:38.787Z,50.08
2022-11-30T17:09:06.860Z,49.58
2022-11-30T17:11:37.462Z,50.27
2022-11-30T17:14:05.671Z,50.22
2022-11-30T17:16:33.622Z,49.75
2022-11-30T17:19:01.501Z,50.20
2022-11-30T17:21:34.637Z,50.03
2022-11-30T17:24:02.865Z,50.51
2022-11-30T17:26:30.817Z,50.59
2022-11-30T17:28:58.686Z,50.87
2022-11-30T17:31:26.613Z,51.18
2022-11-30T17:33:54.652Z,50.71
2022-11-30T17:36:23.276Z,50.54
2022-11-30T17:38:52.662Z,50.35
2022-11-30T17:41:22.163Z,50.72
2022-11-30T17:43:50.411Z,50.71
2022-11-30T17:46:19.339Z,51.37
2022-11-30T17:48:47.287Z,50.75
2022-11-30T17:51:15.190Z,50.89
2022-11-30T17:53:44.236Z,50.99
2022-11-30T17:56:14.881Z,50.66
2022-11-30T17:58:44.741Z,50.43
2022-11-30T18:01:17.223Z,50.19
2022-11-30T18:03:45.263Z,50.58
2022-11-30T18:06:13.390Z,50.55
2022-11-30T18:08:41.363Z,50.42
2022-11-30T18:11:10.923Z,50.70
2022-11-30T18:13:40.397Z,50.59
2022-11-30T18:16:10.578Z,51.31
2022-11-30T18:18:42.850Z,51.39
2022-11-30T18:21:15.068Z,51.31
2022-11-30T18:23:42.972Z,51.03
2022-11-30T18:26:14.220Z,51.00
2022-11-30T18:28:43.778Z,50.43
2022-11-30T18:31:11.727Z,50.75
2022-11-30T18:33:39.866Z,51.40
2022-11-30T18:36:08.112Z,51.10
2022-11-30T18:38:38.263Z,51.66
2022-11-30T18:41:07.134Z,51.47
2022-11-30T18:43:35.311Z,51.51
2022-11-30T18:46:05.621Z,51.16
2022-11-30T18:48:33.604Z,51.24
2022-11-30T18:51:01.662Z,51.46
2022-11-30T18:53:29.491Z,52.06
2022-11-30T18:56:08.691Z,52.35
2022-11-30T18:58:36.569Z,52.16
2022-11-30T19:01:09.731Z,52.63
2022-11-30T19:03:38.563Z,53.66
2022-11-30T19:06:07.827Z,52.25
2022-11-30T19:08:36.199Z,51.49
2022-11-30T19:11:05.423Z,51.34
2022-11-30T19:13:34.097Z,51.13
2022-11-30T19:16:03.289Z,50.68
2022-11-30T19:18:32.746Z,50.87
2022-11-30T19:21:00.816Z,51.01
2022-11-30T19:23:28.703Z,51.27
2022-11-30T19:26:01.714Z,52.15
2022-11-30T19:28:30.125Z,52.50
2022-11-30T19:30:58.141Z,52.53
2022-11-30T19:33:26.617Z,52.72
2022-11-30T19:36:00.849Z,52.78
2022-11-30T19:38:28.701Z,53.08
2022-11-30T19:40:56.534Z,52.77
2022-11-30T19:43:24.373Z,52.41
2022-11-30T19:45:52.203Z,51.93
2022-11-30T19:48:20.134Z,52.46
2022-11-30T19:50:47.895Z,52.11
2022-11-30T19:53:17.088Z,51.99
2022-11-30T19:55:45.036Z,52.96
2022-11-30T19:58:12.924Z,53.43
2022-11-30T20:00:40.784Z,52.49
2022-11-30T20:03:10.439Z,52.05
2022-11-30T20:05:38.326Z,52.25
2022-11-30T20:08:07.165Z,52.75
2022-11-30T20:10:36.398Z,52.50
2022-11-30T20:13:04.446Z,52.72
2022-11-30T20:15:32.313Z,52.89
2022-11-30T20:18:00.464Z,52.49
2022-11-30T20:20:28.257Z,53.07
2022-11-30T20:22:56.043Z,52.54
2022-11-30T20:25:24.061Z,52.26
2022-11-30T20:27:53.345Z,52.55
2022-11-30T20:30:21.425Z,52.35
2022-11-30T20:32:49.232Z,52.25
2022-11-30T20:35:17.272Z,52.91
2022-11-30T20:37:45.116Z,52.98
2022-11-30T20:40:13.465Z,52.55
2022-11-30T20:42:44.649Z,52.23
2022-11-30T20:45:13.857Z,52.24
2022-11-30T20:47:41.729Z,51.68
2022-11-30T20:50:10.545Z,52.09
2022-11-30T20:52:38.504Z,52.06
2022-11-30T20:55:06.988Z,51.79
2022-11-30T20:57:35.042Z,51.02
2022-11-30T21:00:07.632Z,50.26
2022-11-30T21:02:40.854Z,49.75
2022-11-30T21:05:09.211Z,50.83
2022-11-30T21:07:37.153Z,51.13
2022-11-30T21:10:05.272Z,51.29
2022-11-30T21:12:33.226Z,51.16
2022-11-30T21:15:01.074Z,51.97
2022-11-30T21:17:28.983Z,52.61
2022-11-30T21:19:58.426Z,52.11
2022-11-30T21:22:27.247Z,51.86
2022-11-30T21:24:55.417Z,51.84
2022-11-30T21:27:23.205Z,51.69
2022-11-30T21:29:51.204Z,52.34
2022-11-30T21:32:18.992Z,52.62
2022-11-30T21:34:47.274Z,53.04
2022-11-30T21:37:16.668Z,53.12
2022-11-30T21:39:44.617Z,52.96
2022-11-30T21:42:12.674Z,53.73
2022-11-30T21:44:40.495Z,53.18
2022-11-30T21:47:08.693Z,53.87
2022-11-30T21:49:36.450Z,53.69
2022-11-30T21:52:04.497Z,53.45
2022-11-30T21:54:33.644Z,52.88
2022-11-30T21:57:01.479Z,53.37
2022-11-30T21:59:30.338Z,53.46
2022-11-30T22:01:58.133Z,53.17
2022-11-30T22:04:25.994Z,53.77
2022-11-30T22:06:53.813Z,52.81
2022-11-30T22:09:21.759Z,53.13
2022-11-30T22:11:50.937Z,52.79
2022-11-30T22:14:18.739Z,53.18
2022-11-30T22:16:46.816Z,53.04
2022-11-30T22:19:14.743Z,53.17
2022-11-30T22:21:48.299Z,53.38
2022-11-30T22:24:17.904Z,54.18
2022-11-30T22:26:46.711Z,53.40
2022-11-30T22:29:17.878Z,54.41
2022-11-30T22:31:47.641Z,53.56
2022-11-30T22:34:15.680Z,53.15
2022-11-30T22:36:44.911Z,53.00
2022-11-30T22:39:14.027Z,52.88
2022-11-30T22:41:42.737Z,52.78
2022-11-30T22:44:11.362Z,52.96
2022-11-30T22:46:40.861Z,52.42
2022-11-30T22:49:10.317Z,52.28
2022-11-30T22:51:38.771Z,52.14
2022-11-30T22:54:07.413Z,52.08
2022-11-30T22:56:36.762Z,52.00
2022-11-30T22:59:06.269Z,52.24
2022-11-30T23:01:35.633Z,52.36
2022-11-30T23:04:06.601Z,52.59
2022-11-30T23:06:35.208Z,52.24
2022-11-30T23:09:03.803Z,52.79
2022-11-30T23:11:32.042Z,52.89
2022-11-30T23:13:59.891Z,52.49
2022-11-30T23:16:28.223Z,52.42
2022-11-30T23:18:57.804Z,52.16
2022-11-30T23:21:30.254Z,51.89
2022-11-30T23:24:00.490Z,52.20
2022-11-30T23:26:30.224Z,51.93
2022-11-30T23:29:00.360Z,51.81
2022-11-30T23:31:34.145Z,51.71
2022-11-30T23:34:05.855Z,51.39
2022-11-30T23:36:35.783Z,51.27
2022-11-30T23:39:05.479Z,51.62
2022-11-30T23:41:33.453Z,51.29
2022-11-30T23:44:01.277Z,51.43
2022-11-30T23:46:29.408Z,51.49
2022-11-30T23:48:57.959Z,51.54
2022-11-30T23:51:26.294Z,52.19
2022-11-30T23:53:55.529Z,52.20
2022-11-30T23:56:24.603Z,52.54
2022-11-30T23:58:52.681Z,52.92
